LGRP/RHO METAR and TAF weather

Enter ICAO airport designator
Station Type Date Time Source
LGRP METAR 2021/09/16 10:20 UTC NOAA

LGRP 161020Z 32011KT 9999 FEW018 28/13 Q1012 NOSIG


Station Type Date Time Source
LGRP Decoded METAR 2021/09/16 10:20 UTC NOAA

Rhodes Airport , Greece (LGRP) 36-24N 028-05E 11M
Sep 16, 2021 - 06:20 AM EDT / 2021.09.16 1020 UTC
Wind: from the NW (320 degrees) at 13 MPH (11 KT):0
Visibility: greater than 7 mile(s):0
Sky conditions: mostly clear
Temperature: 82 F (28 C)
Dew Point: 55 F (13 C)
Relative Humidity: 39%
Pressure (altimeter): 29.88 in. Hg (1012 hPa)
ob: LGRP 161020Z 32011KT 9999 FEW018 28/13 Q1012 NOSIG
cycle: 10

Station Type Date Time Source
LGRP TAF 2021/09/16 06:16 UTC NOAA

TAF LGRP 160500Z 1606/1706 33015KT 9999 FEW018
TEMPO 1610/1618 31015G25KT

Example: see airport list